createdAt,value
2019-06-10T00:01:41.643Z,4.70
2019-06-10T00:04:12.491Z,3.00
2019-06-10T00:06:42.608Z,2.73
2019-06-10T00:09:12.171Z,3.30
2019-06-10T00:11:41.876Z,3.20
2019-06-10T00:14:11.528Z,3.93
2019-06-10T00:16:41.623Z,3.10
2019-06-10T00:19:12.794Z,3.50
2019-06-10T00:21:42.491Z,2.80
2019-06-10T00:24:12.030Z,3.70
2019-06-10T00:26:41.678Z,4.80
2019-06-10T00:29:12.414Z,3.37
2019-06-10T00:32:04.711Z,3.43
2019-06-10T00:34:34.998Z,3.17
2019-06-10T00:37:07.309Z,3.87
2019-06-10T00:39:35.107Z,3.70
2019-06-10T00:42:07.568Z,3.60
2019-06-10T00:44:35.904Z,3.17
2019-06-10T00:47:07.952Z,3.30
2019-06-10T00:49:36.902Z,3.60
2019-06-10T00:52:07.416Z,3.57
2019-06-10T00:54:36.959Z,2.93
2019-06-10T00:57:07.347Z,3.13
2019-06-10T00:59:36.920Z,3.20
2019-06-10T01:02:06.923Z,3.13
2019-06-10T01:04:37.804Z,2.80
2019-06-10T01:07:08.524Z,3.23
2019-06-10T01:09:38.122Z,3.40
2019-06-10T01:12:08.976Z,3.47
2019-06-10T01:14:41.025Z,3.13
2019-06-10T01:17:11.879Z,3.33
2019-06-10T01:19:42.451Z,3.03
2019-06-10T01:22:13.809Z,3.60
2019-06-10T01:24:43.260Z,3.30
2019-06-10T01:27:14.980Z,3.67
2019-06-10T01:29:44.044Z,5.90
2019-06-10T01:32:15.014Z,13.40
2019-06-10T01:34:45.921Z,4.73
2019-06-10T01:37:16.073Z,3.70
2019-06-10T01:39:46.029Z,3.00
2019-06-10T01:42:17.120Z,3.40
2019-06-10T01:44:46.743Z,3.57
2019-06-10T01:47:17.581Z,3.27
2019-06-10T01:49:47.439Z,3.37
2019-06-10T01:52:18.374Z,3.20
2019-06-10T01:54:48.067Z,2.83
2019-06-10T01:57:18.642Z,3.13
2019-06-10T01:59:50.711Z,2.87
2019-06-10T02:02:24.312Z,3.63
2019-06-10T02:04:54.281Z,3.67
2019-06-10T02:07:24.249Z,2.77
2019-06-10T02:09:54.929Z,3.60
2019-06-10T02:12:24.562Z,3.10
2019-06-10T02:14:54.318Z,3.13
2019-06-10T02:17:24.250Z,3.20
2019-06-10T02:19:54.280Z,2.87
2019-06-10T02:22:24.398Z,3.47
2019-06-10T02:24:54.381Z,3.23
2019-06-10T02:27:23.975Z,3.40
2019-06-10T02:29:53.539Z,3.30
2019-06-10T02:32:31.818Z,3.40
2019-06-10T02:35:07.712Z,3.73
2019-06-10T02:37:32.646Z,3.60
2019-06-10T02:39:57.706Z,4.50
2019-06-10T02:42:35.482Z,4.03
2019-06-10T02:45:03.822Z,3.50
2019-06-10T02:47:37.921Z,3.47
2019-06-10T02:50:14.979Z,3.37
2019-06-10T02:52:44.621Z,2.83
2019-06-10T02:55:16.334Z,3.57
2019-06-10T02:57:45.742Z,3.10
2019-06-10T03:00:22.901Z,3.20
2019-06-10T03:02:46.802Z,3.70
2019-06-10T03:05:18.954Z,3.03
2019-06-10T03:07:47.848Z,3.77
2019-06-10T03:10:19.536Z,3.50
2019-06-10T03:12:48.701Z,3.00
2019-06-10T03:15:18.349Z,3.57
2019-06-10T03:17:47.879Z,3.00
2019-06-10T03:20:17.896Z,3.37
2019-06-10T03:22:47.896Z,3.60
2019-06-10T03:25:18.322Z,3.37
2019-06-10T03:27:47.909Z,3.10
2019-06-10T03:30:28.657Z,3.40
2019-06-10T03:32:50.034Z,3.67
2019-06-10T03:35:19.529Z,3.10
2019-06-10T03:37:49.127Z,3.27
2019-06-10T03:40:18.721Z,3.50
2019-06-10T03:42:48.386Z,3.10
2019-06-10T03:45:19.161Z,2.80
2019-06-10T03:47:48.763Z,4.00
2019-06-10T03:50:19.255Z,3.40
2019-06-10T03:52:52.445Z,3.23
2019-06-10T03:55:24.888Z,3.83
2019-06-10T03:57:53.291Z,3.03
2019-06-10T04:00:25.426Z,3.40
2019-06-10T04:02:54.151Z,3.10
2019-06-10T04:05:25.412Z,3.47
2019-06-10T04:07:55.341Z,3.13
2019-06-10T04:10:27.788Z,3.20
2019-06-10T04:12:56.181Z,3.40
2019-06-10T04:15:28.354Z,3.40
2019-06-10T04:17:56.992Z,2.97
2019-06-10T04:20:28.301Z,3.47
2019-06-10T04:22:58.084Z,3.37
2019-06-10T04:25:29.217Z,3.57
2019-06-10T04:27:59.059Z,3.80
2019-06-10T04:30:29.278Z,3.40
2019-06-10T04:32:58.917Z,3.37
2019-06-10T04:35:29.128Z,3.23
2019-06-10T04:38:02.552Z,3.07
2019-06-10T04:40:32.902Z,2.97
2019-06-10T04:43:03.047Z,3.90
2019-06-10T04:45:32.640Z,3.63
2019-06-10T04:48:03.079Z,3.37
2019-06-10T04:50:41.013Z,3.67
2019-06-10T04:53:05.032Z,4.03
2019-06-10T04:55:34.572Z,3.30
2019-06-10T04:58:04.218Z,3.60
2019-06-10T05:00:33.752Z,3.50
2019-06-10T05:03:03.330Z,3.40
2019-06-10T05:05:32.989Z,3.30
2019-06-10T05:08:02.813Z,3.83
2019-06-10T05:10:33.253Z,4.10
2019-06-10T05:13:03.207Z,3.90
2019-06-10T05:15:34.978Z,3.40
2019-06-10T05:18:04.675Z,3.70
2019-06-10T05:20:50.785Z,3.73
2019-06-10T05:23:05.554Z,4.30
2019-06-10T05:25:35.062Z,4.40
2019-06-10T05:28:04.722Z,4.20
2019-06-10T05:30:34.518Z,4.37
2019-06-10T05:33:04.039Z,3.87
2019-06-10T05:35:34.046Z,4.70
2019-06-10T05:38:03.767Z,4.50
2019-06-10T05:40:34.299Z,4.37
2019-06-10T05:43:03.942Z,4.43
2019-06-10T05:45:35.083Z,5.03
2019-06-10T05:48:04.864Z,4.50
2019-06-10T05:50:34.986Z,4.67
2019-06-10T05:53:04.994Z,4.50
2019-06-10T05:55:35.243Z,4.30
2019-06-10T05:58:05.171Z,4.70
2019-06-10T06:00:35.540Z,4.60
2019-06-10T06:03:05.238Z,4.70
2019-06-10T06:05:36.159Z,4.60
2019-06-10T06:08:08.810Z,4.33
2019-06-10T06:10:37.883Z,4.80
2019-06-10T06:13:07.544Z,5.00
2019-06-10T06:15:38.087Z,4.07
2019-06-10T06:18:10.728Z,4.53
2019-06-10T06:20:39.046Z,4.73
2019-06-10T06:23:09.313Z,4.37
2019-06-10T06:25:43.255Z,4.33
2019-06-10T06:28:12.392Z,4.70
2019-06-10T06:30:42.297Z,5.03
2019-06-10T06:33:13.573Z,5.07
2019-06-10T06:35:46.339Z,5.30
2019-06-10T06:38:15.440Z,4.57
2019-06-10T06:40:45.479Z,4.83
2019-06-10T06:43:14.985Z,4.63
2019-06-10T06:45:44.519Z,4.80
2019-06-10T06:48:14.053Z,4.20
2019-06-10T06:51:00.321Z,4.63
2019-06-10T06:53:27.792Z,4.87
2019-06-10T06:55:46.299Z,4.40
2019-06-10T06:58:15.815Z,4.87
2019-06-10T07:01:00.605Z,4.40
2019-06-10T07:03:16.769Z,4.43
2019-06-10T07:05:47.240Z,4.30
2019-06-10T07:08:17.698Z,5.17
2019-06-10T07:10:48.736Z,4.53
2019-06-10T07:13:18.478Z,5.00
2019-06-10T07:15:48.390Z,3.97
2019-06-10T07:18:17.913Z,3.87
2019-06-10T07:20:47.475Z,4.13
2019-06-10T07:23:17.001Z,4.60
2019-06-10T07:25:47.661Z,3.87
2019-06-10T07:28:17.419Z,4.60
2019-06-10T07:30:52.702Z,4.53
2019-06-10T07:33:18.755Z,4.83
2019-06-10T07:35:48.265Z,3.77
2019-06-10T07:38:17.895Z,4.70
2019-06-10T07:40:47.501Z,4.10
2019-06-10T07:43:17.090Z,5.43
2019-06-10T07:45:48.057Z,4.43
2019-06-10T07:48:18.880Z,4.70
2019-06-10T07:50:49.538Z,4.10
2019-06-10T07:53:22.281Z,4.20
2019-06-10T07:55:53.539Z,4.47
2019-06-10T07:58:23.149Z,4.40
2019-06-10T08:00:53.522Z,4.30
2019-06-10T08:03:23.128Z,4.50
2019-06-10T08:05:52.748Z,4.30
2019-06-10T08:08:23.633Z,4.20
2019-06-10T08:10:53.278Z,4.23
2019-06-10T08:13:22.949Z,4.30
2019-06-10T08:15:53.204Z,4.30
2019-06-10T08:18:22.884Z,4.50
2019-06-10T08:20:52.929Z,4.07
2019-06-10T08:23:23.782Z,4.10
2019-06-10T08:25:57.361Z,3.57
2019-06-10T08:28:24.923Z,4.53
2019-06-10T08:30:55.597Z,4.63
2019-06-10T08:33:25.316Z,3.73
2019-06-10T08:35:59.536Z,4.17
2019-06-10T08:38:26.177Z,4.40
2019-06-10T08:40:55.918Z,3.93
2019-06-10T08:43:25.962Z,3.67
2019-06-10T08:45:55.644Z,4.57
2019-06-10T08:48:25.288Z,4.30
2019-06-10T08:50:55.060Z,4.60
2019-06-10T08:53:25.721Z,3.80
2019-06-10T08:55:55.226Z,4.50
2019-06-10T08:58:25.062Z,3.80
2019-06-10T09:00:54.789Z,3.67
2019-06-10T09:03:24.811Z,3.40
2019-06-10T09:05:57.721Z,4.47
2019-06-10T09:08:26.640Z,3.90
2019-06-10T09:10:56.149Z,3.90
2019-06-10T09:13:25.655Z,4.23
2019-06-10T09:16:11.104Z,4.13
2019-06-10T09:18:26.443Z,4.10
2019-06-10T09:20:56.377Z,4.47
2019-06-10T09:23:26.133Z,4.37
2019-06-10T09:25:57.563Z,4.20
2019-06-10T09:28:27.187Z,5.17
2019-06-10T09:30:59.320Z,4.77
2019-06-10T09:33:28.250Z,4.33
2019-06-10T09:35:57.830Z,3.90
2019-06-10T09:38:27.426Z,3.87
2019-06-10T09:41:02.019Z,4.60
2019-06-10T09:43:29.168Z,4.60
2019-06-10T09:46:03.579Z,3.77
2019-06-10T09:48:33.525Z,4.00
2019-06-10T09:51:03.597Z,3.90
2019-06-10T09:53:42.429Z,4.50
2019-06-10T09:56:04.550Z,4.17
2019-06-10T09:58:34.375Z,3.70
2019-06-10T10:01:04.879Z,3.60
2019-06-10T10:03:34.495Z,4.17
2019-06-10T10:06:14.047Z,3.77
2019-06-10T10:08:36.626Z,3.83
2019-06-10T10:11:06.297Z,4.90
2019-06-10T10:13:35.789Z,3.77
2019-06-10T10:16:07.003Z,4.07
2019-06-10T10:18:36.658Z,4.20
2019-06-10T10:21:06.359Z,4.37
2019-06-10T10:23:50.189Z,3.83
2019-06-10T10:26:07.310Z,4.13
2019-06-10T10:28:36.891Z,4.60
2019-06-10T10:31:06.439Z,3.37
2019-06-10T10:33:35.960Z,3.90
2019-06-10T10:36:05.708Z,3.90
2019-06-10T10:38:35.305Z,4.20
2019-06-10T10:41:05.437Z,4.60
2019-06-10T10:43:37.820Z,4.47
2019-06-10T10:46:06.621Z,4.03
2019-06-10T10:48:36.261Z,4.10
2019-06-10T10:51:06.234Z,4.27
2019-06-10T10:53:35.769Z,3.87
2019-06-10T10:56:05.423Z,4.10
2019-06-10T10:58:35.016Z,4.60
2019-06-10T11:01:05.113Z,4.23
2019-06-10T11:03:34.881Z,4.07
2019-06-10T11:06:04.543Z,4.13
2019-06-10T11:08:34.215Z,4.67
2019-06-10T11:11:05.762Z,4.37
2019-06-10T11:13:37.175Z,4.33
2019-06-10T11:16:07.211Z,4.37
2019-06-10T11:18:37.004Z,4.60
2019-06-10T11:21:06.655Z,4.30
2019-06-10T11:23:36.331Z,4.47
2019-06-10T11:26:06.062Z,4.80
2019-06-10T11:28:36.001Z,4.70
2019-06-10T11:31:06.200Z,4.20
2019-06-10T11:33:35.686Z,3.67
2019-06-10T11:36:05.361Z,4.10
2019-06-10T11:38:35.093Z,3.70
2019-06-10T11:41:05.066Z,4.27
2019-06-10T11:43:34.579Z,4.00
2019-06-10T11:46:07.639Z,3.90
2019-06-10T11:48:35.738Z,4.47
2019-06-10T11:51:05.390Z,4.20
2019-06-10T11:53:35.018Z,3.93
2019-06-10T11:56:05.106Z,4.10
2019-06-10T11:58:34.717Z,4.40
2019-06-10T12:01:04.658Z,4.23
2019-06-10T12:03:34.435Z,3.70
2019-06-10T12:06:05.755Z,4.40
2019-06-10T12:08:35.555Z,4.60
2019-06-10T12:11:06.854Z,4.30
2019-06-10T12:13:36.357Z,4.70
2019-06-10T12:17:05.101Z,4.63
2019-06-10T12:18:37.538Z,3.87
2019-06-10T12:21:07.199Z,3.60
2019-06-10T12:23:36.879Z,4.20
2019-06-10T12:26:06.509Z,4.47
2019-06-10T12:28:36.220Z,4.53
2019-06-10T12:31:07.454Z,3.83
2019-06-10T12:33:37.375Z,4.30
2019-06-10T12:36:07.662Z,4.53
2019-06-10T12:38:37.784Z,3.87
2019-06-10T12:41:09.979Z,3.90
2019-06-10T12:43:38.937Z,4.47
2019-06-10T12:46:08.759Z,3.93
2019-06-10T12:48:38.355Z,3.87
2019-06-10T12:51:09.519Z,3.93
2019-06-10T12:53:39.559Z,4.47
2019-06-10T12:56:11.318Z,4.00
2019-06-10T12:58:42.872Z,3.93
2019-06-10T13:01:11.662Z,4.10
2019-06-10T13:03:43.594Z,4.53
2019-06-10T13:06:13.881Z,4.67
2019-06-10T13:08:44.174Z,4.13
2019-06-10T13:11:15.216Z,3.77
2019-06-10T13:13:45.391Z,4.43
2019-06-10T13:16:15.076Z,4.37
2019-06-10T13:18:44.638Z,4.37
2019-06-10T13:21:17.579Z,4.73
2019-06-10T13:23:45.805Z,4.00
2019-06-10T13:26:17.773Z,4.70
2019-06-10T13:28:46.584Z,4.27
2019-06-10T13:31:16.215Z,4.60
2019-06-10T13:33:46.013Z,4.50
2019-06-10T13:36:15.796Z,4.00
2019-06-10T13:38:45.663Z,4.30
2019-06-10T13:41:15.160Z,3.60
2019-06-10T13:43:44.806Z,4.60
2019-06-10T13:46:14.663Z,4.83
2019-06-10T13:48:44.618Z,3.70
2019-06-10T13:51:15.642Z,5.17
2019-06-10T13:53:46.421Z,5.00
2019-06-10T13:56:38.080Z,4.70
2019-06-10T13:58:47.552Z,5.23
2019-06-10T14:01:21.346Z,4.80
2019-06-10T14:03:48.681Z,3.80
2019-06-10T14:06:37.400Z,4.37
2019-06-10T14:08:49.455Z,4.53
2019-06-10T14:11:23.810Z,4.67
2019-06-10T14:13:52.605Z,5.20
2019-06-10T14:16:23.403Z,5.07
2019-06-10T14:18:54.100Z,4.83
2019-06-10T14:21:23.920Z,4.30
2019-06-10T14:23:53.801Z,4.57
2019-06-10T14:26:36.669Z,4.93
2019-06-10T14:28:54.766Z,4.43
2019-06-10T14:31:39.413Z,4.53
2019-06-10T14:33:55.824Z,4.60
2019-06-10T14:36:25.339Z,4.13
2019-06-10T14:38:54.882Z,4.57
2019-06-10T14:41:25.993Z,4.63
2019-06-10T14:43:57.561Z,4.77
2019-06-10T14:46:27.520Z,5.27
2019-06-10T14:48:57.019Z,4.63
2019-06-10T14:51:26.565Z,4.50
2019-06-10T14:53:56.235Z,4.23
2019-06-10T14:56:25.755Z,4.47
2019-06-10T14:58:55.277Z,5.37
2019-06-10T15:01:25.936Z,4.73
2019-06-10T15:03:55.770Z,5.10
2019-06-10T15:06:25.366Z,4.77
2019-06-10T15:08:54.993Z,5.10
2019-06-10T15:11:27.671Z,4.90
2019-06-10T15:13:55.705Z,5.03
2019-06-10T15:16:25.317Z,4.80
2019-06-10T15:19:08.283Z,5.07
2019-06-10T15:21:26.039Z,4.90
2019-06-10T15:23:55.584Z,4.90
2019-06-10T15:26:25.082Z,4.83
2019-06-10T15:28:54.669Z,4.60
2019-06-10T15:31:24.314Z,5.00
2019-06-10T15:33:53.796Z,4.97
2019-06-10T15:36:23.397Z,5.20
2019-06-10T15:38:53.011Z,5.50
2019-06-10T15:41:24.730Z,4.90
2019-06-10T15:43:53.867Z,5.37
2019-06-10T15:46:23.550Z,5.17
2019-06-10T15:48:54.213Z,4.90
2019-06-10T15:51:26.091Z,5.70
2019-06-10T15:53:55.369Z,5.60
2019-06-10T15:56:38.744Z,5.10
2019-06-10T15:58:56.365Z,5.23
2019-06-10T16:01:27.344Z,13.57
2019-06-10T16:03:57.370Z,5.50
2019-06-10T16:06:27.014Z,6.43
2019-06-10T16:08:56.708Z,6.00
2019-06-10T16:11:27.140Z,5.73
2019-06-10T16:13:56.952Z,5.17
2019-06-10T16:16:26.492Z,5.00
2019-06-10T16:18:56.047Z,4.83
2019-06-10T16:21:25.636Z,4.50
2019-06-10T16:23:55.253Z,5.00
2019-06-10T16:26:26.710Z,5.10
2019-06-10T16:28:56.217Z,5.07
2019-06-10T16:31:27.619Z,5.30
2019-06-10T16:33:57.380Z,5.20
2019-06-10T16:36:28.117Z,5.60
2019-06-10T16:38:57.791Z,5.70
2019-06-10T16:41:28.053Z,5.27
2019-06-10T16:43:57.853Z,5.87
2019-06-10T16:46:28.940Z,5.00
2019-06-10T16:48:58.805Z,5.77
2019-06-10T16:51:31.838Z,5.80
2019-06-10T16:54:02.394Z,5.60
2019-06-10T16:56:33.594Z,5.67
2019-06-10T16:59:03.356Z,5.77
2019-06-10T17:01:33.279Z,7.23
2019-06-10T17:04:02.903Z,5.70
2019-06-10T17:06:32.951Z,5.57
2019-06-10T17:09:02.893Z,7.00
2019-06-10T17:11:32.550Z,6.40
2019-06-10T17:14:03.131Z,6.50
2019-06-10T17:16:32.820Z,5.53
2019-06-10T17:19:02.541Z,5.80
2019-06-10T17:21:34.601Z,6.37
2019-06-10T17:24:03.681Z,5.70
2019-06-10T17:26:37.929Z,6.10
2019-06-10T17:29:05.059Z,5.93
2019-06-10T17:31:35.314Z,5.50
2019-06-10T17:34:05.541Z,6.87
2019-06-10T17:36:35.592Z,6.00
2019-06-10T17:39:08.592Z,6.20
2019-06-10T17:41:38.637Z,6.50
2019-06-10T17:44:08.603Z,5.90
2019-06-10T17:46:38.172Z,5.87
2019-06-10T17:49:07.745Z,5.80
2019-06-10T17:51:37.411Z,5.90
2019-06-10T17:54:06.886Z,6.43
2019-06-10T17:56:36.545Z,6.20
2019-06-10T17:59:06.181Z,6.33
2019-06-10T18:01:35.820Z,5.67
2019-06-10T18:04:05.560Z,5.43
2019-06-10T18:06:36.478Z,6.20
2019-06-10T18:09:08.003Z,6.27
2019-06-10T18:11:37.597Z,6.40
2019-06-10T18:14:07.593Z,6.10
2019-06-10T18:16:37.441Z,6.00
2019-06-10T18:19:07.063Z,6.20
2019-06-10T18:21:37.049Z,6.20
2019-06-10T18:24:08.424Z,6.87
2019-06-10T18:26:38.377Z,6.60
2019-06-10T18:29:09.319Z,6.67
2019-06-10T18:31:39.563Z,7.17
2019-06-10T18:34:09.177Z,5.47
2019-06-10T18:36:42.574Z,6.30
2019-06-10T18:39:12.361Z,6.50
2019-06-10T18:41:42.165Z,6.57
2019-06-10T18:44:22.467Z,7.10
2019-06-10T18:46:43.625Z,6.07
2019-06-10T18:49:13.559Z,6.17
2019-06-10T18:51:43.574Z,6.03
2019-06-10T18:54:13.346Z,5.93
2019-06-10T18:56:43.219Z,6.53
2019-06-10T18:59:19.758Z,6.30
2019-06-10T19:01:44.147Z,6.23
2019-06-10T19:04:13.745Z,7.20
2019-06-10T19:06:43.366Z,7.10
2019-06-10T19:09:13.079Z,7.47
2019-06-10T19:11:43.538Z,6.67
2019-06-10T19:14:13.105Z,6.83
2019-06-10T19:16:43.081Z,7.07
2019-06-10T19:19:12.951Z,7.50
2019-06-10T19:21:43.910Z,7.73
2019-06-10T19:24:13.962Z,6.90
2019-06-10T19:26:45.154Z,7.23
2019-06-10T19:29:29.643Z,7.13
2019-06-10T19:31:46.661Z,7.00
2019-06-10T19:34:18.133Z,7.87
2019-06-10T19:36:47.656Z,7.40
2019-06-10T19:39:17.495Z,7.60
2019-06-10T19:41:47.685Z,7.60
2019-06-10T19:44:17.321Z,7.83
2019-06-10T19:46:46.905Z,8.00
2019-06-10T19:49:16.438Z,7.90
2019-06-10T19:51:46.875Z,7.90
2019-06-10T19:54:16.599Z,8.17
2019-06-10T19:56:46.300Z,7.67
2019-06-10T19:59:15.904Z,8.33
2019-06-10T20:01:48.177Z,8.77
2019-06-10T20:04:18.204Z,8.30
2019-06-10T20:06:50.542Z,8.53
2019-06-10T20:09:19.309Z,8.80
2019-06-10T20:11:50.646Z,8.30
2019-06-10T20:14:20.312Z,8.77
2019-06-10T20:16:52.473Z,9.00
2019-06-10T20:19:22.456Z,8.80
2019-06-10T20:21:52.080Z,9.60
2019-06-10T20:24:22.275Z,9.10
2019-06-10T20:26:53.050Z,8.50
2019-06-10T20:29:22.729Z,9.30
2019-06-10T20:31:52.465Z,9.07
2019-06-10T20:34:24.420Z,8.83
2019-06-10T20:36:53.488Z,9.43
2019-06-10T20:39:24.884Z,9.13
2019-06-10T20:41:56.027Z,9.60
2019-06-10T20:44:25.618Z,9.07
2019-06-10T20:46:55.260Z,9.60
2019-06-10T20:49:24.868Z,9.43
2019-06-10T20:52:07.045Z,10.33
2019-06-10T20:54:25.780Z,10.27
2019-06-10T20:56:55.343Z,10.80
2019-06-10T20:59:25.993Z,10.10
2019-06-10T21:01:55.952Z,10.30
2019-06-10T21:04:27.308Z,10.13
2019-06-10T21:06:58.167Z,9.40
2019-06-10T21:09:28.522Z,10.63
2019-06-10T21:11:58.150Z,10.90
2019-06-10T21:14:27.746Z,11.07
2019-06-10T21:16:57.245Z,10.43
2019-06-10T21:19:26.898Z,10.60
2019-06-10T21:21:56.406Z,11.57
2019-06-10T21:24:25.938Z,12.37
2019-06-10T21:26:56.717Z,11.47
2019-06-10T21:29:26.364Z,11.40
2019-06-10T21:31:55.885Z,10.80
2019-06-10T21:34:25.837Z,11.83
2019-06-10T21:36:55.739Z,11.60
2019-06-10T21:39:25.644Z,11.67
2019-06-10T21:41:56.271Z,12.60
2019-06-10T21:44:26.131Z,13.60
2019-06-10T21:46:55.682Z,12.70
2019-06-10T21:49:25.457Z,11.63
2019-06-10T21:51:56.977Z,13.00
2019-06-10T21:54:26.311Z,14.40
2019-06-10T21:56:55.976Z,14.37
2019-06-10T21:59:25.534Z,13.60
2019-06-10T22:01:55.187Z,14.50
2019-06-10T22:04:24.875Z,13.03
2019-06-10T22:06:56.097Z,13.37
2019-06-10T22:09:25.811Z,13.37
2019-06-10T22:11:56.000Z,13.43
2019-06-10T22:14:25.696Z,13.57
2019-06-10T22:16:56.469Z,12.97
2019-06-10T22:19:26.242Z,13.40
2019-06-10T22:21:56.741Z,13.70
2019-06-10T22:24:26.492Z,13.67
2019-06-10T22:26:56.157Z,14.10
2019-06-10T22:29:25.925Z,15.77
2019-06-10T22:31:57.191Z,14.47
2019-06-10T22:34:27.018Z,15.00
2019-06-10T22:36:57.689Z,14.90
2019-06-10T22:39:27.667Z,12.63
2019-06-10T22:41:57.347Z,16.33
2019-06-10T22:44:26.991Z,14.43
2019-06-10T22:46:57.201Z,14.77
2019-06-10T22:49:27.061Z,14.90
2019-06-10T22:51:58.582Z,14.50
2019-06-10T22:54:27.814Z,16.17
2019-06-10T22:56:58.464Z,14.53
2019-06-10T22:59:28.202Z,15.20
2019-06-10T23:01:58.717Z,14.10
2019-06-10T23:04:29.039Z,14.50
2019-06-10T23:06:59.771Z,14.40
2019-06-10T23:09:30.155Z,13.17
2019-06-10T23:11:59.758Z,14.30
2019-06-10T23:14:29.356Z,13.33
2019-06-10T23:17:00.063Z,13.70
2019-06-10T23:19:32.952Z,13.47
2019-06-10T23:22:02.938Z,12.93
2019-06-10T23:24:32.696Z,13.40
2019-06-10T23:27:03.393Z,13.60
2019-06-10T23:29:33.236Z,13.87
2019-06-10T23:32:06.910Z,13.90
2019-06-10T23:34:34.207Z,13.53
2019-06-10T23:37:03.916Z,13.40
2019-06-10T23:39:33.712Z,14.90
2019-06-10T23:42:04.255Z,13.63
2019-06-10T23:44:34.345Z,14.40
2019-06-10T23:47:04.383Z,14.50
2019-06-10T23:49:34.260Z,13.00
2019-06-10T23:52:05.548Z,13.50
2019-06-10T23:54:35.492Z,12.93
2019-06-10T23:57:06.224Z,13.43
2019-06-10T23:59:36.102Z,12.80
